ETD88F OLBA-OMAA
Flight info
| Callsign | ETD88F |
|---|---|
| Flight time | N/A |
| Altitude | 35000 |
| Route | ELIKA N159 VELOX N71 BIRES DCT PASOS L550 KARIK B411 DEESA Y415 TAMRO/N0458F370 N318 DASVA N685 ORSIS/N0470F350 N685 UMEVU Q415 UKILI |
| Aircraft | A320/M-SDE3FGHIRWY/LB1 |
Departure
| Time | 2026-05-07 11:37 |
|---|---|
| Airport | Beirut Rafic Hariri International Airport (OLBA) |
Arrival
| Time | N/A |
|---|---|
| Airport | Zayed International Airport (OMAA) |
| Time | Latitude | Longitude | Altitude | Speed | Heading |
|---|---|---|---|---|---|
| 2026-05-07 11:19 | 33.82489 | 35.49526 | 17 ft | 0 kts | 327° |
| 2026-05-07 11:28 | 33.82482 | 35.49531 | 16 ft | 4 kts | 326° |
| 2026-05-07 11:29 | 33.82460 | 35.49550 | 16 ft | 4 kts | 321° |
| 2026-05-07 11:29 | 33.82440 | 35.49571 | 16 ft | 4 kts | 311° |
| 2026-05-07 11:29 | 33.82426 | 35.49596 | 18 ft | 4 kts | 275° |
| 2026-05-07 11:29 | 33.82429 | 35.49612 | 17 ft | 1 kts | 215° |
| 2026-05-07 11:30 | 33.82432 | 35.49614 | 17 ft | 0 kts | 215° |
| 2026-05-07 11:32 | 33.82430 | 35.49612 | 17 ft | 3 kts | 215° |
| 2026-05-07 11:32 | 33.82381 | 35.49572 | 17 ft | 10 kts | 215° |
| 2026-05-07 11:33 | 33.82319 | 35.49520 | 16 ft | 12 kts | 215° |
| 2026-05-07 11:33 | 33.82246 | 35.49520 | 15 ft | 12 kts | 134° |
| 2026-05-07 11:33 | 33.82183 | 35.49590 | 15 ft | 13 kts | 173° |
| 2026-05-07 11:33 | 33.82103 | 35.49536 | 15 ft | 14 kts | 216° |
| 2026-05-07 11:34 | 33.82018 | 35.49464 | 16 ft | 16 kts | 215° |
| 2026-05-07 11:34 | 33.81926 | 35.49386 | 18 ft | 17 kts | 214° |
| 2026-05-07 11:34 | 33.81825 | 35.49302 | 16 ft | 19 kts | 216° |
| 2026-05-07 11:34 | 33.81715 | 35.49208 | 16 ft | 20 kts | 216° |
| 2026-05-07 11:35 | 33.81596 | 35.49106 | 15 ft | 22 kts | 215° |
| 2026-05-07 11:35 | 33.81464 | 35.48997 | 14 ft | 24 kts | 214° |
| 2026-05-07 11:35 | 33.81319 | 35.48870 | 13 ft | 27 kts | 215° |
| 2026-05-07 11:35 | 33.81173 | 35.48751 | 14 ft | 22 kts | 214° |
| 2026-05-07 11:36 | 33.81148 | 35.48685 | 15 ft | 5 kts | 352° |
| 2026-05-07 11:36 | 33.81207 | 35.48668 | 16 ft | 25 kts | 347° |
| 2026-05-07 11:36 | 33.81605 | 35.48557 | 17 ft | 89 kts | 347° |
| 2026-05-07 11:36 | 33.82386 | 35.48340 | 19 ft | 138 kts | 347° |
| 2026-05-07 11:37 | 33.83429 | 35.48049 | 255 ft | 158 kts | 346° |
| 2026-05-07 11:37 | 33.84508 | 35.47716 | 767 ft | 162 kts | 346° |
| 2026-05-07 11:37 | 33.85573 | 35.47336 | 1265 ft | 162 kts | 345° |
| 2026-05-07 11:37 | 33.86551 | 35.46674 | 1750 ft | 167 kts | 315° |
| 2026-05-07 11:38 | 33.87027 | 35.45346 | 1928 ft | 188 kts | 275° |
| 2026-05-07 11:38 | 33.86977 | 35.43698 | 2063 ft | 206 kts | 271° |
| 2026-05-07 11:38 | 33.86898 | 35.41888 | 2176 ft | 227 kts | 271° |
| 2026-05-07 11:38 | 33.86808 | 35.39890 | 2467 ft | 251 kts | 270° |
| 2026-05-07 11:39 | 33.86711 | 35.37732 | 3068 ft | 263 kts | 271° |
| 2026-05-07 11:39 | 33.86612 | 35.35514 | 3876 ft | 267 kts | 269° |
| 2026-05-07 11:39 | 33.86514 | 35.33270 | 4716 ft | 270 kts | 267° |
| 2026-05-07 11:39 | 33.86416 | 35.31006 | 5549 ft | 273 kts | 267° |
| 2026-05-07 11:40 | 33.86318 | 35.28741 | 6333 ft | 276 kts | 266° |
| 2026-05-07 11:40 | 33.86219 | 35.26419 | 7097 ft | 279 kts | 266° |
| 2026-05-07 11:40 | 33.86122 | 35.24076 | 7908 ft | 281 kts | 266° |
| 2026-05-07 11:40 | 33.86026 | 35.21730 | 8707 ft | 282 kts | 266° |
| 2026-05-07 11:41 | 33.85929 | 35.19364 | 9481 ft | 284 kts | 267° |
| 2026-05-07 11:41 | 33.85829 | 35.16989 | 10229 ft | 288 kts | 267° |
| 2026-05-07 11:41 | 33.85722 | 35.14496 | 10398 ft | 310 kts | 267° |
| 2026-05-07 11:41 | 33.85605 | 35.11812 | 10524 ft | 332 kts | 267° |
| 2026-05-07 11:42 | 33.85481 | 35.08949 | 10640 ft | 352 kts | 266° |
| 2026-05-07 11:42 | 33.85352 | 35.05947 | 10945 ft | 365 kts | 267° |
| 2026-05-07 11:42 | 33.85219 | 35.02896 | 11600 ft | 366 kts | 267° |
| 2026-05-07 11:42 | 33.85083 | 34.99823 | 12224 ft | 368 kts | 267° |
| 2026-05-07 11:43 | 33.84948 | 34.96746 | 12840 ft | 371 kts | 267° |
| 2026-05-07 11:43 | 33.84812 | 34.93627 | 13410 ft | 374 kts | 267° |
| 2026-05-07 11:43 | 33.84674 | 34.90485 | 13995 ft | 378 kts | 267° |
| 2026-05-07 11:43 | 33.84533 | 34.87321 | 14531 ft | 380 kts | 267° |
| 2026-05-07 11:44 | 33.84386 | 34.84135 | 15070 ft | 382 kts | 268° |
| 2026-05-07 11:44 | 33.84238 | 34.80932 | 15615 ft | 385 kts | 268° |
| 2026-05-07 11:44 | 33.84090 | 34.77710 | 16164 ft | 387 kts | 268° |
| 2026-05-07 11:44 | 33.83941 | 34.74463 | 16715 ft | 390 kts | 268° |
| 2026-05-07 11:45 | 33.83793 | 34.71237 | 17255 ft | 393 kts | 268° |
| 2026-05-07 11:45 | 33.83643 | 34.67941 | 17793 ft | 395 kts | 269° |
| 2026-05-07 11:45 | 33.83492 | 34.64628 | 18328 ft | 398 kts | 269° |
| 2026-05-07 11:45 | 33.83340 | 34.61291 | 18800 ft | 401 kts | 269° |
| 2026-05-07 11:46 | 33.83185 | 34.57938 | 19272 ft | 403 kts | 269° |
| 2026-05-07 11:46 | 33.83050 | 34.54575 | 19759 ft | 404 kts | 269° |
| 2026-05-07 11:46 | 33.82945 | 34.51191 | 20218 ft | 405 kts | 270° |
| 2026-05-07 11:46 | 33.82856 | 34.47791 | 20625 ft | 409 kts | 270° |
| 2026-05-07 11:47 | 33.82772 | 34.44361 | 21031 ft | 411 kts | 270° |
| 2026-05-07 11:47 | 33.82684 | 34.40919 | 21428 ft | 413 kts | 270° |
| 2026-05-07 11:47 | 33.82590 | 34.37460 | 21817 ft | 415 kts | 270° |
| 2026-05-07 11:47 | 33.82487 | 34.33987 | 22196 ft | 417 kts | 269° |
| 2026-05-07 11:48 | 33.82378 | 34.30492 | 22566 ft | 418 kts | 269° |
| 2026-05-07 11:48 | 33.82266 | 34.26992 | 22933 ft | 420 kts | 269° |
| 2026-05-07 11:48 | 33.82154 | 34.23472 | 23286 ft | 422 kts | 269° |
| 2026-05-07 11:48 | 33.82041 | 34.19944 | 23628 ft | 424 kts | 270° |
| 2026-05-07 11:49 | 33.81926 | 34.16396 | 23921 ft | 425 kts | 270° |
| 2026-05-07 11:49 | 33.81770 | 34.12835 | 24210 ft | 428 kts | 265° |
| 2026-05-07 11:49 | 33.81181 | 34.09313 | 24503 ft | 432 kts | 255° |
| 2026-05-07 11:49 | 33.80060 | 34.05964 | 24901 ft | 434 kts | 245° |
| 2026-05-07 11:50 | 33.78456 | 34.02878 | 25325 ft | 436 kts | 238° |
| 2026-05-07 11:50 | 33.76700 | 33.99913 | 25745 ft | 434 kts | 238° |
| 2026-05-07 11:50 | 33.74952 | 33.96957 | 26182 ft | 433 kts | 238° |
| 2026-05-07 11:50 | 33.73236 | 33.94054 | 26624 ft | 431 kts | 238° |
| 2026-05-07 11:51 | 33.71505 | 33.91117 | 27069 ft | 429 kts | 238° |
| 2026-05-07 11:51 | 33.69785 | 33.88195 | 27534 ft | 427 kts | 238° |
| 2026-05-07 11:51 | 33.68071 | 33.85290 | 28011 ft | 425 kts | 238° |
| 2026-05-07 11:51 | 33.66362 | 33.82403 | 28499 ft | 423 kts | 238° |
| 2026-05-07 11:52 | 33.64656 | 33.79529 | 28987 ft | 421 kts | 238° |
| 2026-05-07 11:52 | 33.62960 | 33.76679 | 29472 ft | 419 kts | 238° |
| 2026-05-07 11:52 | 33.61268 | 33.73845 | 29966 ft | 416 kts | 238° |
| 2026-05-07 11:52 | 33.59586 | 33.71022 | 30463 ft | 413 kts | 238° |
| 2026-05-07 11:53 | 33.57925 | 33.68225 | 30877 ft | 412 kts | 238° |
| 2026-05-07 11:53 | 33.56264 | 33.65424 | 31242 ft | 411 kts | 238° |
| 2026-05-07 11:53 | 33.54605 | 33.62634 | 31602 ft | 411 kts | 238° |
| 2026-05-07 11:53 | 33.52964 | 33.59881 | 31959 ft | 411 kts | 238° |
| 2026-05-07 11:54 | 33.51302 | 33.57102 | 32316 ft | 410 kts | 238° |
| 2026-05-07 11:54 | 33.49639 | 33.54321 | 32679 ft | 410 kts | 238° |
| 2026-05-07 11:54 | 33.47977 | 33.51545 | 33039 ft | 409 kts | 238° |
| 2026-05-07 11:54 | 33.46322 | 33.48773 | 33402 ft | 409 kts | 239° |
| 2026-05-07 11:55 | 33.44665 | 33.45999 | 33760 ft | 409 kts | 239° |
| 2026-05-07 11:55 | 33.43010 | 33.43232 | 34101 ft | 408 kts | 239° |
| 2026-05-07 11:55 | 33.41357 | 33.40467 | 34389 ft | 408 kts | 238° |
| 2026-05-07 11:55 | 33.39707 | 33.37703 | 34662 ft | 408 kts | 238° |
| 2026-05-07 11:56 | 33.38058 | 33.34943 | 34925 ft | 408 kts | 238° |
| 2026-05-07 11:56 | 33.36405 | 33.32184 | 35098 ft | 409 kts | 238° |
| 2026-05-07 11:56 | 33.34735 | 33.29403 | 35139 ft | 414 kts | 238° |
| 2026-05-07 11:56 | 33.31520 | 33.24070 | 35142 ft | 425 kts | 238° |
| 2026-05-07 11:57 | 33.28035 | 33.18293 | 35139 ft | 430 kts | 238° |
| 2026-05-07 11:57 | 33.21044 | 33.06722 | 35139 ft | 432 kts | 238° |
| 2026-05-07 11:58 | 33.14095 | 32.95007 | 35135 ft | 433 kts | 235° |
| 2026-05-07 11:58 | 33.09347 | 32.90497 | 35142 ft | 448 kts | 208° |
| 2026-05-07 11:58 | 33.03176 | 32.89070 | 35141 ft | 464 kts | 180° |
| 2026-05-07 11:59 | 32.90374 | 32.92225 | 35152 ft | 471 kts | 171° |
| 2026-05-07 11:59 | 32.77559 | 32.95519 | 35165 ft | 471 kts | 171° |
| 2026-05-07 12:00 | 32.64744 | 32.98864 | 35154 ft | 471 kts | 171° |
| 2026-05-07 12:00 | 32.52018 | 33.02164 | 35151 ft | 471 kts | 171° |
| 2026-05-07 12:01 | 32.39236 | 33.05474 | 35150 ft | 470 kts | 171° |
| 2026-05-07 12:01 | 32.26437 | 33.08765 | 35154 ft | 470 kts | 171° |
| 2026-05-07 12:02 | 32.13571 | 33.10406 | 35143 ft | 463 kts | 181° |
| 2026-05-07 12:02 | 32.00692 | 33.11050 | 35143 ft | 463 kts | 181° |
| 2026-05-07 12:03 | 31.87827 | 33.11700 | 35149 ft | 462 kts | 181° |
| 2026-05-07 12:03 | 31.74985 | 33.12349 | 35146 ft | 462 kts | 181° |
| 2026-05-07 12:04 | 31.62137 | 33.12991 | 35149 ft | 462 kts | 181° |
| 2026-05-07 12:04 | 31.49294 | 33.13649 | 35145 ft | 462 kts | 181° |
| 2026-05-07 12:05 | 31.36539 | 33.14972 | 35135 ft | 469 kts | 166° |
| 2026-05-07 12:05 | 31.30578 | 33.18139 | 35148 ft | 473 kts | 154° |
| 2026-05-07 12:05 | 31.24808 | 33.21801 | 35148 ft | 473 kts | 154° |
| 2026-05-07 12:06 | 31.13212 | 33.29076 | 35150 ft | 473 kts | 154° |
| 2026-05-07 12:06 | 31.01628 | 33.36350 | 35140 ft | 473 kts | 154° |
| 2026-05-07 12:07 | 30.90059 | 33.43603 | 35144 ft | 472 kts | 154° |
| 2026-05-07 12:07 | 30.78486 | 33.50839 | 35134 ft | 472 kts | 154° |
| 2026-05-07 12:08 | 30.66909 | 33.58041 | 35126 ft | 472 kts | 154° |
| 2026-05-07 12:08 | 30.55333 | 33.65209 | 35122 ft | 471 kts | 154° |
| 2026-05-07 12:09 | 30.43785 | 33.72397 | 35107 ft | 470 kts | 154° |
| 2026-05-07 12:09 | 30.32246 | 33.79507 | 35108 ft | 469 kts | 154° |
| 2026-05-07 12:10 | 30.20752 | 33.86615 | 35095 ft | 468 kts | 154° |
| 2026-05-07 12:10 | 30.09269 | 33.93665 | 35089 ft | 467 kts | 154° |
| 2026-05-07 12:11 | 29.97789 | 34.00712 | 35075 ft | 467 kts | 154° |
| 2026-05-07 12:11 | 29.86375 | 34.07670 | 35061 ft | 466 kts | 154° |
| 2026-05-07 12:12 | 29.74909 | 34.14657 | 35070 ft | 466 kts | 154° |
| 2026-05-07 12:12 | 29.64226 | 34.22920 | 35047 ft | 471 kts | 129° |
| 2026-05-07 12:12 | 29.61268 | 34.29626 | 35047 ft | 474 kts | 105° |
| 2026-05-07 12:13 | 29.60695 | 34.37148 | 35057 ft | 475 kts | 90° |
| 2026-05-07 12:13 | 29.60623 | 34.52344 | 35023 ft | 476 kts | 96° |
| 2026-05-07 12:13 | 29.58883 | 34.59609 | 35010 ft | 472 kts | 117° |
| 2026-05-07 12:14 | 29.55130 | 34.65716 | 35001 ft | 468 kts | 137° |
| 2026-05-07 12:14 | 29.45866 | 34.76116 | 34977 ft | 472 kts | 122° |
| 2026-05-07 12:14 | 29.43392 | 34.83089 | 34980 ft | 475 kts | 103° |
| 2026-05-07 12:15 | 29.42317 | 34.90587 | 34983 ft | 477 kts | 99° |
| 2026-05-07 12:15 | 29.41981 | 34.98164 | 34984 ft | 478 kts | 84° |
| 2026-05-07 12:15 | 29.43434 | 35.05594 | 34993 ft | 478 kts | 74° |
| 2026-05-07 12:16 | 29.46864 | 35.20361 | 35003 ft | 479 kts | 75° |
| 2026-05-07 12:16 | 29.50283 | 35.35055 | 35011 ft | 480 kts | 75° |
| 2026-05-07 12:17 | 29.53711 | 35.49893 | 35017 ft | 480 kts | 75° |
| 2026-05-07 12:17 | 29.57228 | 35.64726 | 34995 ft | 482 kts | 75° |
| 2026-05-07 12:18 | 29.60765 | 35.79603 | 35003 ft | 483 kts | 75° |
| 2026-05-07 12:18 | 29.63462 | 35.94723 | 35006 ft | 483 kts | 81° |
| 2026-05-07 12:19 | 29.65770 | 36.09948 | 35004 ft | 483 kts | 79° |
| 2026-05-07 12:19 | 29.68279 | 36.25135 | 35020 ft | 483 kts | 79° |
| 2026-05-07 12:20 | 29.70708 | 36.40370 | 35000 ft | 485 kts | 80° |
| 2026-05-07 12:20 | 29.73201 | 36.55630 | 34991 ft | 486 kts | 80° |
| 2026-05-07 12:21 | 29.74781 | 36.68432 | 34980 ft | 486 kts | 93° |
| 2026-05-07 12:21 | 29.73211 | 36.78579 | 34991 ft | 483 kts | 106° |
| 2026-05-07 12:21 | 29.71723 | 36.86034 | 35014 ft | 484 kts | 105° |
| 2026-05-07 12:22 | 29.69236 | 36.98612 | 35019 ft | 485 kts | 105° |
| 2026-05-07 12:22 | 29.66190 | 37.13748 | 35017 ft | 486 kts | 106° |
| 2026-05-07 12:23 | 29.63131 | 37.28881 | 35010 ft | 487 kts | 107° |
| 2026-05-07 12:23 | 29.60057 | 37.44060 | 35015 ft | 488 kts | 107° |
| 2026-05-07 12:24 | 29.56944 | 37.59281 | 35003 ft | 490 kts | 108° |
| 2026-05-07 12:24 | 29.53792 | 37.74501 | 34998 ft | 491 kts | 108° |
| 2026-05-07 12:25 | 29.50627 | 37.89785 | 35001 ft | 492 kts | 108° |
| 2026-05-07 12:25 | 29.47535 | 38.05114 | 34990 ft | 496 kts | 107° |
| 2026-05-07 12:26 | 29.44891 | 38.20572 | 34992 ft | 498 kts | 107° |
| 2026-05-07 12:26 | 29.42122 | 38.36152 | 35012 ft | 499 kts | 108° |
| 2026-05-07 12:27 | 29.39298 | 38.51726 | 35026 ft | 499 kts | 108° |
| 2026-05-07 12:27 | 29.36482 | 38.67314 | 35016 ft | 499 kts | 108° |
| 2026-05-07 12:28 | 29.33638 | 38.82865 | 35025 ft | 499 kts | 109° |
| 2026-05-07 12:28 | 29.30672 | 38.98413 | 35024 ft | 498 kts | 111° |
| 2026-05-07 12:29 | 29.27356 | 39.13826 | 35024 ft | 498 kts | 111° |
| 2026-05-07 12:29 | 29.24109 | 39.29263 | 35032 ft | 499 kts | 111° |
| 2026-05-07 12:30 | 29.20842 | 39.44707 | 35026 ft | 499 kts | 111° |
| 2026-05-07 12:30 | 29.17566 | 39.60063 | 35018 ft | 499 kts | 111° |
| 2026-05-07 12:31 | 29.14253 | 39.75500 | 35050 ft | 500 kts | 111° |
| 2026-05-07 12:31 | 29.10932 | 39.90927 | 35057 ft | 500 kts | 111° |
| 2026-05-07 12:32 | 29.08381 | 40.06647 | 35041 ft | 504 kts | 107° |
| 2026-05-07 12:32 | 29.05994 | 40.22439 | 35067 ft | 502 kts | 108° |
| 2026-05-07 12:33 | 29.02161 | 40.46003 | 35065 ft | 503 kts | 108° |
| 2026-05-07 12:33 | 28.99625 | 40.61731 | 35056 ft | 503 kts | 109° |
| 2026-05-07 12:34 | 28.97050 | 40.77453 | 35061 ft | 504 kts | 109° |
| 2026-05-07 12:34 | 28.94473 | 40.93184 | 35043 ft | 504 kts | 109° |
| 2026-05-07 12:35 | 28.91859 | 41.08904 | 35054 ft | 505 kts | 109° |
| 2026-05-07 12:35 | 28.89232 | 41.24644 | 35046 ft | 504 kts | 109° |
| 2026-05-07 12:36 | 28.86573 | 41.40373 | 35030 ft | 505 kts | 109° |
| 2026-05-07 12:36 | 28.83906 | 41.56094 | 35038 ft | 505 kts | 109° |
| 2026-05-07 12:37 | 28.81229 | 41.71833 | 35025 ft | 505 kts | 109° |
| 2026-05-07 12:37 | 28.78535 | 41.87472 | 35006 ft | 506 kts | 110° |
| 2026-05-07 12:38 | 28.75812 | 42.03260 | 35003 ft | 507 kts | 110° |
| 2026-05-07 12:38 | 28.73053 | 42.19032 | 35023 ft | 508 kts | 110° |
| 2026-05-07 12:39 | 28.70286 | 42.34827 | 35031 ft | 509 kts | 110° |
| 2026-05-07 12:39 | 28.67480 | 42.50639 | 35015 ft | 510 kts | 110° |
| 2026-05-07 12:40 | 28.64560 | 42.66440 | 34986 ft | 504 kts | 116° |
| 2026-05-07 12:40 | 28.61793 | 42.73544 | 34996 ft | 485 kts | 129° |
| 2026-05-07 12:40 | 28.58596 | 42.80330 | 34998 ft | 487 kts | 128° |
| 2026-05-07 12:41 | 28.52280 | 42.93859 | 35020 ft | 488 kts | 128° |
| 2026-05-07 12:41 | 28.45893 | 43.07455 | 35003 ft | 487 kts | 128° |
| 2026-05-07 12:42 | 28.39480 | 43.21023 | 34999 ft | 488 kts | 128° |
| 2026-05-07 12:42 | 28.33061 | 43.34596 | 35002 ft | 488 kts | 128° |
| 2026-05-07 12:43 | 28.26626 | 43.48144 | 34987 ft | 487 kts | 128° |
| 2026-05-07 12:43 | 28.20179 | 43.61671 | 34993 ft | 487 kts | 128° |
| 2026-05-07 12:44 | 28.13678 | 43.75137 | 34993 ft | 486 kts | 128° |
| 2026-05-07 12:44 | 28.07157 | 43.88558 | 34961 ft | 487 kts | 128° |
| 2026-05-07 12:45 | 28.00634 | 44.01993 | 34982 ft | 487 kts | 128° |
| 2026-05-07 12:45 | 27.94086 | 44.15433 | 34985 ft | 487 kts | 128° |
| 2026-05-07 12:46 | 27.87624 | 44.28917 | 34970 ft | 488 kts | 128° |
| 2026-05-07 12:46 | 27.81127 | 44.42419 | 34961 ft | 488 kts | 128° |
| 2026-05-07 12:47 | 27.74635 | 44.55870 | 34982 ft | 487 kts | 128° |
| 2026-05-07 12:47 | 27.68186 | 44.69212 | 34981 ft | 487 kts | 127° |
| 2026-05-07 12:48 | 27.63331 | 44.83698 | 34991 ft | 508 kts | 108° |
| 2026-05-07 12:48 | 27.60472 | 44.99303 | 34989 ft | 507 kts | 109° |
| 2026-05-07 12:49 | 27.57565 | 45.14897 | 34986 ft | 509 kts | 109° |
| 2026-05-07 12:49 | 27.54676 | 45.30530 | 34974 ft | 509 kts | 109° |
| 2026-05-07 12:50 | 27.51737 | 45.46188 | 34952 ft | 511 kts | 109° |
| 2026-05-07 12:50 | 27.48783 | 45.61782 | 34943 ft | 514 kts | 109° |
| 2026-05-07 12:51 | 27.45791 | 45.77562 | 34924 ft | 517 kts | 109° |
| 2026-05-07 12:51 | 27.42759 | 45.93391 | 34941 ft | 519 kts | 109° |
| 2026-05-07 12:52 | 27.39707 | 46.09286 | 34933 ft | 520 kts | 109° |
| 2026-05-07 12:52 | 27.36610 | 46.25222 | 34939 ft | 522 kts | 109° |
| 2026-05-07 12:53 | 27.33614 | 46.41231 | 34938 ft | 525 kts | 108° |
| 2026-05-07 12:53 | 27.30874 | 46.57386 | 34925 ft | 526 kts | 108° |
| 2026-05-07 12:54 | 27.28004 | 46.73522 | 34930 ft | 527 kts | 108° |
| 2026-05-07 12:54 | 27.25143 | 46.89691 | 34930 ft | 527 kts | 108° |
| 2026-05-07 12:55 | 27.22243 | 47.05875 | 34928 ft | 528 kts | 108° |
| 2026-05-07 12:55 | 27.19332 | 47.22024 | 34936 ft | 527 kts | 108° |
| 2026-05-07 12:56 | 27.16390 | 47.38154 | 34924 ft | 527 kts | 108° |
| 2026-05-07 12:56 | 27.13461 | 47.54281 | 34929 ft | 527 kts | 108° |
| 2026-05-07 12:57 | 27.10479 | 47.70378 | 34924 ft | 526 kts | 108° |
| 2026-05-07 12:57 | 27.07501 | 47.86340 | 34918 ft | 525 kts | 108° |
| 2026-05-07 12:58 | 27.04400 | 48.02424 | 34904 ft | 522 kts | 110° |
| 2026-05-07 12:58 | 27.00806 | 48.18039 | 34907 ft | 520 kts | 111° |
| 2026-05-07 12:59 | 26.97284 | 48.33759 | 34896 ft | 520 kts | 110° |
| 2026-05-07 12:59 | 26.93771 | 48.49483 | 34893 ft | 519 kts | 110° |
| 2026-05-07 13:00 | 26.90222 | 48.65160 | 34893 ft | 519 kts | 110° |
| 2026-05-07 13:00 | 26.86788 | 48.80887 | 34885 ft | 521 kts | 108° |
| 2026-05-07 13:01 | 26.84051 | 48.96878 | 34874 ft | 522 kts | 107° |
| 2026-05-07 13:01 | 26.81155 | 49.12777 | 34860 ft | 521 kts | 107° |
| 2026-05-07 13:02 | 26.78201 | 49.28658 | 34857 ft | 521 kts | 107° |
| 2026-05-07 13:02 | 26.73075 | 49.43343 | 34846 ft | 495 kts | 135° |
| 2026-05-07 13:03 | 26.64830 | 49.55538 | 34838 ft | 495 kts | 134° |
| 2026-05-07 13:03 | 26.56557 | 49.67846 | 34844 ft | 495 kts | 134° |
| 2026-05-07 13:04 | 26.48767 | 49.80584 | 34830 ft | 509 kts | 118° |
| 2026-05-07 13:04 | 26.43537 | 49.95318 | 34838 ft | 510 kts | 118° |
| 2026-05-07 13:05 | 26.38241 | 50.10025 | 34810 ft | 511 kts | 117° |
| 2026-05-07 13:05 | 26.32954 | 50.24761 | 34821 ft | 512 kts | 117° |
| 2026-05-07 13:06 | 26.29506 | 50.36949 | 34822 ft | 522 kts | 102° |
| 2026-05-07 13:06 | 26.28509 | 50.44959 | 34836 ft | 522 kts | 102° |
| 2026-05-07 13:07 | 26.27478 | 50.52954 | 34833 ft | 522 kts | 102° |
| 2026-05-07 13:07 | 26.26442 | 50.60900 | 34849 ft | 521 kts | 102° |
| 2026-05-07 13:08 | 26.25002 | 50.67406 | 34842 ft | 512 kts | 116° |
| 2026-05-07 13:08 | 26.21650 | 50.75766 | 34848 ft | 508 kts | 120° |
| 2026-05-07 13:09 | 26.19192 | 50.81770 | 34850 ft | 508 kts | 120° |
| 2026-05-07 13:09 | 26.16254 | 50.88926 | 34832 ft | 508 kts | 120° |
| 2026-05-07 13:10 | 26.13328 | 50.96033 | 34848 ft | 508 kts | 120° |
| 2026-05-07 13:10 | 26.10357 | 51.03167 | 34854 ft | 507 kts | 121° |
| 2026-05-07 13:11 | 26.07164 | 51.10151 | 34853 ft | 505 kts | 123° |
| 2026-05-07 13:11 | 26.03851 | 51.17026 | 34853 ft | 504 kts | 124° |
| 2026-05-07 13:12 | 26.00558 | 51.23919 | 34839 ft | 505 kts | 123° |
| 2026-05-07 13:12 | 25.97314 | 51.30843 | 34841 ft | 505 kts | 123° |
| 2026-05-07 13:13 | 25.94051 | 51.37743 | 34846 ft | 504 kts | 123° |
| 2026-05-07 13:13 | 25.90731 | 51.44591 | 34840 ft | 504 kts | 123° |
| 2026-05-07 13:14 | 25.87397 | 51.51433 | 34827 ft | 504 kts | 123° |
| 2026-05-07 13:14 | 25.84062 | 51.58285 | 34832 ft | 504 kts | 123° |
| 2026-05-07 13:15 | 25.80759 | 51.65083 | 34830 ft | 504 kts | 123° |
| 2026-05-07 13:15 | 25.77433 | 51.71923 | 34830 ft | 503 kts | 123° |
| 2026-05-07 13:16 | 25.74027 | 51.78704 | 34817 ft | 503 kts | 124° |
| 2026-05-07 13:16 | 25.70549 | 51.85435 | 34813 ft | 502 kts | 124° |
| 2026-05-07 13:17 | 25.66946 | 51.92049 | 34815 ft | 500 kts | 127° |
| 2026-05-07 13:17 | 25.63198 | 51.98543 | 34824 ft | 500 kts | 127° |
| 2026-05-07 13:18 | 25.59458 | 52.05041 | 34825 ft | 500 kts | 127° |
| 2026-05-07 13:18 | 25.55771 | 52.11583 | 34822 ft | 501 kts | 127° |
| 2026-05-07 13:19 | 25.52113 | 52.18101 | 34818 ft | 501 kts | 127° |
| 2026-05-07 13:19 | 25.48421 | 52.24644 | 34819 ft | 501 kts | 127° |
| 2026-05-07 13:20 | 25.45013 | 52.31404 | 34819 ft | 505 kts | 121° |
| 2026-05-07 13:20 | 25.41884 | 52.38360 | 34808 ft | 505 kts | 120° |
| 2026-05-07 13:21 | 25.38738 | 52.45303 | 34820 ft | 504 kts | 121° |
| 2026-05-07 13:21 | 25.35403 | 52.52117 | 34820 ft | 503 kts | 123° |
| 2026-05-07 13:22 | 25.31966 | 52.58847 | 34825 ft | 503 kts | 123° |
| 2026-05-07 13:22 | 25.28555 | 52.65597 | 34824 ft | 503 kts | 123° |
| 2026-05-07 13:23 | 25.25293 | 52.72445 | 34815 ft | 505 kts | 119° |
| 2026-05-07 13:23 | 25.22436 | 52.79550 | 34821 ft | 506 kts | 116° |
| 2026-05-07 13:24 | 25.19694 | 52.86718 | 34827 ft | 507 kts | 116° |
| 2026-05-07 13:24 | 25.16859 | 52.93833 | 34825 ft | 506 kts | 117° |
| 2026-05-07 13:25 | 25.13953 | 53.00891 | 34700 ft | 506 kts | 118° |
| 2026-05-07 13:25 | 25.12492 | 53.04419 | 34475 ft | 505 kts | 118° |
| 2026-05-07 13:25 | 25.11033 | 53.07941 | 34236 ft | 504 kts | 117° |
| 2026-05-07 13:26 | 25.09494 | 53.11413 | 34005 ft | 501 kts | 123° |
| 2026-05-07 13:26 | 25.07600 | 53.14615 | 33781 ft | 498 kts | 129° |
| 2026-05-07 13:26 | 25.05614 | 53.17744 | 33531 ft | 499 kts | 129° |
| 2026-05-07 13:26 | 25.03622 | 53.20889 | 33253 ft | 499 kts | 129° |
| 2026-05-07 13:27 | 25.01635 | 53.24030 | 32318 ft | 502 kts | 128° |
| 2026-05-07 13:27 | 24.99638 | 53.27188 | 31251 ft | 504 kts | 128° |
| 2026-05-07 13:27 | 24.97643 | 53.30343 | 30013 ft | 499 kts | 128° |
| 2026-05-07 13:27 | 24.95669 | 53.33462 | 28636 ft | 493 kts | 128° |
| 2026-05-07 13:28 | 24.93724 | 53.36539 | 27432 ft | 484 kts | 127° |
| 2026-05-07 13:28 | 24.91847 | 53.39505 | 26960 ft | 461 kts | 127° |
| 2026-05-07 13:28 | 24.90090 | 53.42484 | 25826 ft | 467 kts | 121° |
| 2026-05-07 13:28 | 24.88504 | 53.45612 | 24681 ft | 468 kts | 121° |
| 2026-05-07 13:29 | 24.86920 | 53.48744 | 23586 ft | 466 kts | 120° |
| 2026-05-07 13:29 | 24.85361 | 53.51833 | 22350 ft | 456 kts | 120° |
| 2026-05-07 13:29 | 24.83839 | 53.54852 | 21142 ft | 446 kts | 120° |
| 2026-05-07 13:29 | 24.82347 | 53.57806 | 20005 ft | 437 kts | 120° |
| 2026-05-07 13:30 | 24.80885 | 53.60693 | 18937 ft | 427 kts | 120° |
| 2026-05-07 13:30 | 24.79468 | 53.63484 | 17919 ft | 419 kts | 120° |
| 2026-05-07 13:30 | 24.78055 | 53.66259 | 16796 ft | 412 kts | 120° |
| 2026-05-07 13:30 | 24.76667 | 53.68984 | 15732 ft | 405 kts | 120° |
| 2026-05-07 13:31 | 24.75306 | 53.71663 | 14738 ft | 397 kts | 120° |
| 2026-05-07 13:31 | 24.73996 | 53.74248 | 14351 ft | 373 kts | 120° |
| 2026-05-07 13:31 | 24.72789 | 53.76639 | 14218 ft | 344 kts | 120° |
| 2026-05-07 13:31 | 24.71667 | 53.78856 | 14002 ft | 322 kts | 120° |
| 2026-05-07 13:32 | 24.70593 | 53.80974 | 13497 ft | 313 kts | 121° |
| 2026-05-07 13:32 | 24.69535 | 53.83050 | 12842 ft | 309 kts | 121° |
| 2026-05-07 13:32 | 24.68493 | 53.85087 | 12395 ft | 300 kts | 120° |
| 2026-05-07 13:32 | 24.67468 | 53.87091 | 12155 ft | 301 kts | 120° |
| 2026-05-07 13:33 | 24.66444 | 53.89090 | 12010 ft | 300 kts | 120° |
| 2026-05-07 13:33 | 24.65419 | 53.91090 | 12005 ft | 301 kts | 120° |
| 2026-05-07 13:33 | 24.64393 | 53.93098 | 12004 ft | 301 kts | 120° |
| 2026-05-07 13:33 | 24.63390 | 53.95118 | 12007 ft | 301 kts | 118° |
| 2026-05-07 13:34 | 24.62474 | 53.97188 | 12007 ft | 301 kts | 116° |
| 2026-05-07 13:34 | 24.60761 | 54.01399 | 12006 ft | 303 kts | 115° |
| 2026-05-07 13:34 | 24.59910 | 54.03517 | 12000 ft | 303 kts | 115° |